createdAt,value
2023-03-15T00:00:42.349Z,100034.00
2023-03-15T00:03:14.797Z,100022.66
2023-03-15T00:05:48.395Z,100034.00
2023-03-15T00:08:21.790Z,100027.88
2023-03-15T00:10:53.065Z,100013.88
2023-03-15T00:13:24.470Z,100035.72
2023-03-15T00:16:00.747Z,100039.97
2023-03-15T00:18:32.460Z,100041.59
2023-03-15T00:21:03.916Z,100028.44
2023-03-15T00:23:35.184Z,100047.69
2023-03-15T00:26:06.464Z,100031.00
2023-03-15T00:28:38.423Z,100030.16
2023-03-15T00:31:15.795Z,100050.38
2023-03-15T00:33:48.004Z,100061.72
2023-03-15T00:36:23.533Z,100053.91
2023-03-15T00:38:56.080Z,100044.34
2023-03-15T00:41:27.631Z,100066.25
2023-03-15T00:43:58.881Z,100043.63
2023-03-15T00:46:30.315Z,100062.94
2023-03-15T00:49:01.668Z,100037.66
2023-03-15T00:51:33.754Z,100079.66
2023-03-15T00:54:05.047Z,100063.06
2023-03-15T00:56:36.489Z,100069.22
2023-03-15T00:59:08.535Z,100083.19
2023-03-15T01:01:44.504Z,100032.41
2023-03-15T01:04:15.792Z,100083.22
2023-03-15T01:06:47.161Z,100081.47
2023-03-15T01:09:18.454Z,100078.81
2023-03-15T01:11:50.389Z,100081.47
2023-03-15T01:14:21.811Z,100097.28
2023-03-15T01:16:53.148Z,100099.94
2023-03-15T01:19:24.771Z,100077.19
2023-03-15T01:21:56.061Z,100078.91
2023-03-15T01:24:27.332Z,100068.44
2023-03-15T01:26:58.649Z,100102.59
2023-03-15T01:29:29.918Z,100110.47
2023-03-15T01:32:01.218Z,100120.06
2023-03-15T01:34:32.500Z,100102.56
2023-03-15T01:37:04.043Z,100113.94
2023-03-15T01:39:35.316Z,100114.78
2023-03-15T01:42:06.925Z,100083.25
2023-03-15T01:44:59.922Z,100097.28
2023-03-15T01:47:32.751Z,100085.03
2023-03-15T01:50:11.433Z,100097.38
2023-03-15T01:52:42.981Z,100075.44
2023-03-15T01:55:19.448Z,100111.25
2023-03-15T01:57:56.075Z,100117.28
2023-03-15T02:00:27.750Z,100104.91
2023-03-15T02:03:04.237Z,100138.16
2023-03-15T02:05:38.267Z,100133.84
2023-03-15T02:08:09.609Z,100136.44
2023-03-15T02:10:44.362Z,100139.97
2023-03-15T02:13:19.495Z,100149.59
2023-03-15T02:15:53.490Z,100146.16
2023-03-15T02:18:24.951Z,100148.81
2023-03-15T02:21:13.260Z,100142.75
2023-03-15T02:23:49.807Z,100141.84
2023-03-15T02:26:28.183Z,100121.69
2023-03-15T02:29:00.119Z,100133.91
2023-03-15T02:31:37.879Z,100143.59
2023-03-15T02:34:09.500Z,100119.91
2023-03-15T02:36:40.822Z,100145.16
2023-03-15T02:39:17.836Z,100156.44
2023-03-15T02:41:59.298Z,100158.06
2023-03-15T02:44:32.654Z,100164.97
2023-03-15T02:47:16.459Z,100146.53
2023-03-15T02:49:51.286Z,100167.53
2023-03-15T02:52:23.145Z,100153.53
2023-03-15T02:54:54.458Z,100160.56
2023-03-15T02:57:25.851Z,100175.47
2023-03-15T02:59:57.199Z,100163.22
2023-03-15T03:02:28.739Z,100177.25
2023-03-15T03:05:00.203Z,100149.06
2023-03-15T03:07:31.494Z,100168.25
2023-03-15T03:10:03.965Z,100187.34
2023-03-15T03:12:35.308Z,100189.81
2023-03-15T03:15:07.516Z,100183.47
2023-03-15T03:17:38.904Z,100208.66
2023-03-15T03:20:24.699Z,100197.13
2023-03-15T03:22:56.015Z,100181.34
2023-03-15T03:25:27.398Z,100218.31
2023-03-15T03:27:59.137Z,100217.53
2023-03-15T03:30:31.032Z,100238.66
2023-03-15T03:33:02.583Z,100241.28
2023-03-15T03:35:33.898Z,100229.06
2023-03-15T03:38:05.188Z,100221.31
2023-03-15T03:40:37.799Z,100245.06
2023-03-15T03:43:09.773Z,100247.66
2023-03-15T03:45:41.073Z,100253.78
2023-03-15T03:48:12.363Z,100240.63
2023-03-15T03:50:43.710Z,100275.59
2023-03-15T03:53:15.057Z,100270.34
2023-03-15T03:55:46.731Z,100269.47
2023-03-15T03:58:18.179Z,100269.47
2023-03-15T04:00:54.156Z,100302.78
2023-03-15T04:03:28.610Z,100308.06
2023-03-15T04:06:01.416Z,100290.47
2023-03-15T04:08:33.145Z,100319.47
2023-03-15T04:11:04.929Z,100292.25
2023-03-15T04:13:36.354Z,100328.28
2023-03-15T04:16:08.209Z,100298.47
2023-03-15T04:18:40.189Z,100273.03
2023-03-15T04:21:11.835Z,100294.97
2023-03-15T04:23:43.105Z,100312.47
2023-03-15T04:26:14.626Z,100332.72
2023-03-15T04:28:46.068Z,100343.19
2023-03-15T04:31:17.404Z,100350.22
2023-03-15T04:33:48.728Z,100339.66
2023-03-15T04:36:21.587Z,100331.75
2023-03-15T04:39:04.204Z,100359.75
2023-03-15T04:41:36.005Z,100353.53
2023-03-15T04:44:07.403Z,100364.88
2023-03-15T04:46:38.670Z,100343.72
2023-03-15T04:49:10.249Z,100362.94
2023-03-15T04:51:41.552Z,100346.06
2023-03-15T04:54:12.821Z,100344.94
2023-03-15T04:56:44.118Z,100362.38
2023-03-15T04:59:15.472Z,100363.91
2023-03-15T05:01:46.811Z,100369.97
2023-03-15T05:04:18.155Z,100373.38
2023-03-15T05:06:49.439Z,100376.88
2023-03-15T05:09:21.914Z,100377.75
2023-03-15T05:11:53.180Z,100392.81
2023-03-15T05:14:24.540Z,100394.66
2023-03-15T05:16:58.405Z,100385.09
2023-03-15T05:19:30.021Z,100387.81
2023-03-15T05:22:03.548Z,100384.34
2023-03-15T05:24:34.864Z,100421.22
2023-03-15T05:27:06.215Z,100420.38
2023-03-15T05:29:37.617Z,100420.44
2023-03-15T05:32:09.086Z,100423.06
2023-03-15T05:34:40.370Z,100425.66
2023-03-15T05:37:12.535Z,100429.94
2023-03-15T05:39:43.814Z,100403.63
2023-03-15T05:42:16.187Z,100428.38
2023-03-15T05:44:48.336Z,100409.13
2023-03-15T05:47:20.454Z,100430.19
2023-03-15T05:49:52.389Z,100444.06
2023-03-15T05:52:24.084Z,100443.94
2023-03-15T05:54:55.371Z,100433.25
2023-03-15T05:57:26.636Z,100469.22
2023-03-15T05:59:57.983Z,100473.66
2023-03-15T06:02:29.481Z,100472.81
2023-03-15T06:05:00.780Z,100486.84
2023-03-15T06:07:32.115Z,100488.66
2023-03-15T06:10:03.863Z,100481.69
2023-03-15T06:12:35.119Z,100500.22
2023-03-15T06:15:07.272Z,100486.16
2023-03-15T06:17:38.578Z,100484.41
2023-03-15T06:20:10.560Z,100483.75
2023-03-15T06:22:41.827Z,100497.81
2023-03-15T06:25:13.097Z,100516.25
2023-03-15T06:27:44.365Z,100518.81
2023-03-15T06:30:17.158Z,100523.22
2023-03-15T06:32:48.827Z,100524.16
2023-03-15T06:35:20.930Z,100523.31
2023-03-15T06:37:52.974Z,100530.44
2023-03-15T06:40:24.257Z,100538.38
2023-03-15T06:42:55.536Z,100530.59
2023-03-15T06:45:27.062Z,100517.44
2023-03-15T06:47:58.426Z,100533.28
2023-03-15T06:50:44.234Z,100522.69
2023-03-15T06:53:17.978Z,100537.63
2023-03-15T06:55:50.648Z,100574.47
2023-03-15T06:58:22.355Z,100544.69
2023-03-15T07:00:53.677Z,100527.13
2023-03-15T07:03:25.009Z,100571.22
2023-03-15T07:05:56.319Z,100566.13
2023-03-15T07:08:27.584Z,100564.59
2023-03-15T07:10:58.950Z,100552.50
2023-03-15T07:13:30.248Z,100544.00
2023-03-15T07:16:01.647Z,100567.97
2023-03-15T07:18:34.452Z,100565.50
2023-03-15T07:21:07.485Z,100574.38
2023-03-15T07:23:38.801Z,100563.94
2023-03-15T07:26:10.070Z,100585.09
2023-03-15T07:28:42.249Z,100592.19
2023-03-15T07:31:13.918Z,100608.84
2023-03-15T07:33:45.219Z,100608.69
2023-03-15T07:36:16.483Z,100647.03
2023-03-15T07:38:47.779Z,100659.03
2023-03-15T07:41:19.084Z,100663.16
2023-03-15T07:43:50.350Z,100664.53
2023-03-15T07:46:21.747Z,100648.47
2023-03-15T07:48:53.043Z,100650.84
2023-03-15T07:51:24.515Z,100660.41
2023-03-15T07:53:55.775Z,100663.00
2023-03-15T07:56:27.080Z,100669.06
2023-03-15T07:58:58.349Z,100657.66
2023-03-15T08:01:29.652Z,100676.22
2023-03-15T08:04:00.912Z,100670.03
2023-03-15T08:06:32.199Z,100667.38
2023-03-15T08:09:05.638Z,100671.78
2023-03-15T08:11:37.237Z,100691.19
2023-03-15T08:14:08.510Z,100693.16
2023-03-15T08:16:39.889Z,100703.94
2023-03-15T08:19:11.349Z,100701.50
2023-03-15T08:21:45.363Z,100689.41
2023-03-15T08:24:16.645Z,100709.81
2023-03-15T08:26:48.334Z,100689.72
2023-03-15T08:29:19.595Z,100717.84
2023-03-15T08:31:50.921Z,100711.72
2023-03-15T08:34:22.748Z,100718.97
2023-03-15T08:36:54.041Z,100720.06
2023-03-15T08:39:25.333Z,100714.94
2023-03-15T08:41:56.648Z,100722.97
2023-03-15T08:44:27.964Z,100729.13
2023-03-15T08:46:59.354Z,100729.09
2023-03-15T08:49:31.178Z,100707.75
2023-03-15T08:52:02.617Z,100726.03
2023-03-15T08:54:33.903Z,100718.97
2023-03-15T08:57:05.197Z,100713.75
2023-03-15T08:59:36.536Z,100709.34
2023-03-15T09:02:11.324Z,100725.97
2023-03-15T09:04:43.752Z,100716.16
2023-03-15T09:07:15.648Z,100739.88
2023-03-15T09:09:48.249Z,100738.25
2023-03-15T09:12:21.027Z,100727.00
2023-03-15T09:14:52.295Z,100746.53
2023-03-15T09:17:23.538Z,100738.69
2023-03-15T09:19:54.803Z,100758.09
2023-03-15T09:22:38.635Z,100747.66
2023-03-15T09:25:10.956Z,100764.34
2023-03-15T09:27:42.231Z,100764.34
2023-03-15T09:30:14.204Z,100769.63
2023-03-15T09:32:46.159Z,100750.31
2023-03-15T09:35:20.045Z,100773.16
2023-03-15T09:37:51.374Z,100779.28
2023-03-15T09:40:32.058Z,100771.38
2023-03-15T09:43:18.905Z,100767.84
2023-03-15T09:45:50.100Z,100773.13
2023-03-15T09:48:32.210Z,100775.78
2023-03-15T09:51:18.715Z,100782.81
2023-03-15T09:54:05.751Z,100779.31
2023-03-15T09:57:09.410Z,100759.09
2023-03-15T09:59:46.290Z,100763.47
2023-03-15T10:02:24.503Z,100785.44
2023-03-15T10:05:06.226Z,100790.69
2023-03-15T10:07:38.008Z,100789.81
2023-03-15T10:10:17.343Z,100782.75
2023-03-15T10:13:26.157Z,100784.31
2023-03-15T10:16:01.017Z,100779.88
2023-03-15T10:18:47.155Z,100788.78
2023-03-15T10:21:48.824Z,100795.94
2023-03-15T10:24:26.990Z,100807.41
2023-03-15T10:27:04.582Z,100823.22
2023-03-15T10:29:36.539Z,100837.78
2023-03-15T10:32:17.732Z,100840.84
2023-03-15T10:34:54.392Z,100813.03
2023-03-15T10:37:26.397Z,100821.16
2023-03-15T10:39:59.072Z,100828.59
2023-03-15T10:42:32.581Z,100842.66
2023-03-15T10:45:25.024Z,100842.16
2023-03-15T10:48:00.588Z,100842.81
2023-03-15T10:50:33.470Z,100811.41
2023-03-15T10:53:11.104Z,100836.19
2023-03-15T10:55:46.320Z,100831.09
2023-03-15T10:58:27.392Z,100832.97
2023-03-15T11:01:08.178Z,100804.94
2023-03-15T11:03:41.405Z,100819.19
2023-03-15T11:06:21.860Z,100822.78
2023-03-15T11:08:53.260Z,100830.72
2023-03-15T11:11:24.591Z,100822.75
2023-03-15T11:14:02.922Z,100845.56
2023-03-15T11:16:35.579Z,100849.94
2023-03-15T11:19:15.964Z,100856.13
2023-03-15T11:21:49.652Z,100852.72
2023-03-15T11:24:27.876Z,100841.34
2023-03-15T11:27:02.001Z,100867.75
2023-03-15T11:29:35.474Z,100869.53
2023-03-15T11:32:20.578Z,100856.28
2023-03-15T11:35:04.603Z,100865.94
2023-03-15T11:38:03.149Z,100850.16
2023-03-15T11:40:45.254Z,100868.84
2023-03-15T11:43:51.855Z,100868.88
2023-03-15T11:46:29.231Z,100869.78
2023-03-15T11:49:10.694Z,100868.94
2023-03-15T11:51:42.067Z,100848.69
2023-03-15T11:54:18.743Z,100869.75
2023-03-15T11:57:28.189Z,100865.31
2023-03-15T12:00:18.307Z,100858.28
2023-03-15T12:02:53.184Z,100855.72
2023-03-15T12:05:43.027Z,100877.63
2023-03-15T12:08:35.294Z,100890.84
2023-03-15T12:11:21.734Z,100895.28
2023-03-15T12:14:02.813Z,100899.72
2023-03-15T12:16:42.482Z,100886.53
2023-03-15T12:19:20.030Z,100907.59
2023-03-15T12:21:57.778Z,100919.84
2023-03-15T12:24:36.050Z,100905.56
2023-03-15T12:27:19.986Z,100928.09
2023-03-15T12:30:00.308Z,100925.16
2023-03-15T12:32:46.861Z,100908.19
2023-03-15T12:35:21.398Z,100948.56
2023-03-15T12:37:53.706Z,100921.34
2023-03-15T12:40:26.703Z,100933.50
2023-03-15T12:43:02.085Z,100938.88
2023-03-15T12:45:37.470Z,100931.81
2023-03-15T12:48:12.538Z,100961.75
2023-03-15T12:50:43.845Z,100946.00
2023-03-15T12:53:23.122Z,100933.84
2023-03-15T12:56:02.850Z,100932.22
2023-03-15T12:58:41.123Z,100919.25
2023-03-15T13:01:16.208Z,100918.38
2023-03-15T13:03:47.581Z,100924.63
2023-03-15T13:06:45.366Z,100906.22
2023-03-15T13:09:38.271Z,100919.47
2023-03-15T13:12:17.556Z,100922.19
2023-03-15T13:15:02.207Z,100923.97
2023-03-15T13:17:48.794Z,100932.81
2023-03-15T13:20:41.337Z,100930.31
2023-03-15T13:23:17.871Z,100933.81
2023-03-15T13:25:57.822Z,100916.28
2023-03-15T13:28:38.160Z,100920.72
2023-03-15T13:31:20.650Z,100928.63
2023-03-15T13:33:57.249Z,100930.41
2023-03-15T13:36:47.580Z,100936.59
2023-03-15T13:39:25.771Z,100917.25
2023-03-15T13:42:03.644Z,100919.03
2023-03-15T13:44:34.964Z,100922.56
2023-03-15T13:47:06.322Z,100920.78
2023-03-15T13:49:37.789Z,100904.91
2023-03-15T13:52:14.595Z,100927.78
2023-03-15T13:54:45.988Z,100928.69
2023-03-15T13:57:20.060Z,100907.63
2023-03-15T14:00:00.477Z,100919.97
2023-03-15T14:02:47.359Z,100929.63
2023-03-15T14:05:27.121Z,100911.16
2023-03-15T14:08:15.745Z,100934.88
2023-03-15T14:11:20.843Z,100930.47
2023-03-15T14:13:57.560Z,100933.09
2023-03-15T14:16:57.362Z,100941.06
2023-03-15T14:19:34.768Z,100941.94
2023-03-15T14:22:18.203Z,100928.75
2023-03-15T14:24:52.443Z,100919.03
2023-03-15T14:27:28.254Z,100927.78
2023-03-15T14:30:01.557Z,100938.25
2023-03-15T14:32:38.270Z,100946.09
2023-03-15T14:35:38.666Z,100935.44
2023-03-15T14:38:22.148Z,100940.72
2023-03-15T14:40:54.221Z,100945.94
2023-03-15T14:43:25.491Z,100914.13
2023-03-15T14:45:56.863Z,100924.72
2023-03-15T14:48:30.138Z,100947.66
2023-03-15T14:51:02.761Z,100936.41
2023-03-15T14:53:37.320Z,100957.56
2023-03-15T14:56:11.845Z,100913.63
2023-03-15T14:58:43.126Z,100957.56
2023-03-15T15:01:19.221Z,100933.00
2023-03-15T15:03:54.977Z,100946.25
2023-03-15T15:06:28.019Z,100944.53
2023-03-15T15:09:01.406Z,100970.06
2023-03-15T15:11:32.784Z,100977.09
2023-03-15T15:14:04.051Z,100955.16
2023-03-15T15:16:35.423Z,100961.31
2023-03-15T15:19:06.773Z,100954.25
2023-03-15T15:21:39.103Z,100971.84
2023-03-15T15:24:17.368Z,100958.63
2023-03-15T15:26:48.748Z,100978.84
2023-03-15T15:29:20.087Z,100966.50
2023-03-15T15:31:51.435Z,100975.34
2023-03-15T15:34:22.733Z,100966.56
2023-03-15T15:36:54.021Z,100885.59
2023-03-15T15:39:29.433Z,100975.38
2023-03-15T15:42:00.703Z,100961.25
2023-03-15T15:44:31.959Z,100989.38
2023-03-15T15:47:03.314Z,100964.69
2023-03-15T15:49:34.566Z,100991.06
2023-03-15T15:52:06.170Z,101007.81
2023-03-15T15:54:37.888Z,101002.53
2023-03-15T15:57:12.145Z,100977.00
2023-03-15T15:59:43.481Z,100984.09
2023-03-15T16:02:21.990Z,100984.94
2023-03-15T16:04:54.806Z,101010.44
2023-03-15T16:07:26.290Z,101004.22
2023-03-15T16:09:59.596Z,101005.94
2023-03-15T16:12:32.695Z,101020.84
2023-03-15T16:15:04.357Z,101003.25
2023-03-15T16:17:35.676Z,100992.66
2023-03-15T16:20:09.177Z,101002.31
2023-03-15T16:22:43.541Z,101002.28
2023-03-15T16:25:23.548Z,100998.72
2023-03-15T16:27:56.166Z,101031.28
2023-03-15T16:30:30.393Z,101010.06
2023-03-15T16:33:01.733Z,101011.81
2023-03-15T16:35:35.959Z,101011.81
2023-03-15T16:38:15.015Z,101039.94
2023-03-15T16:40:46.342Z,100999.31
2023-03-15T16:43:18.757Z,101019.50
2023-03-15T16:45:50.168Z,101053.84
2023-03-15T16:48:21.572Z,101018.53
2023-03-15T16:50:55.219Z,101066.00
2023-03-15T16:53:26.534Z,101055.34
2023-03-15T16:55:58.727Z,101061.47
2023-03-15T16:58:30.446Z,101052.56
2023-03-15T17:01:01.876Z,101050.75
2023-03-15T17:03:34.906Z,101080.63
2023-03-15T17:06:20.199Z,101055.88
2023-03-15T17:09:04.756Z,101058.41
2023-03-15T17:11:38.453Z,101085.63
2023-03-15T17:14:16.353Z,101079.38
2023-03-15T17:16:47.963Z,101066.00
2023-03-15T17:19:19.244Z,101084.41
2023-03-15T17:21:51.966Z,101096.59
2023-03-15T17:24:23.338Z,101070.00
2023-03-15T17:26:54.719Z,101082.22
2023-03-15T17:29:26.092Z,101105.84
2023-03-15T17:31:58.081Z,101074.88
2023-03-15T17:34:29.425Z,101095.88
2023-03-15T17:37:00.714Z,101092.09
2023-03-15T17:39:32.263Z,101088.38
2023-03-15T17:42:03.695Z,101084.69
2023-03-15T17:44:34.976Z,101082.66
2023-03-15T17:47:08.531Z,101122.16
2023-03-15T17:49:40.870Z,101120.16
2023-03-15T17:52:18.123Z,101118.28
2023-03-15T17:54:49.412Z,101128.66
2023-03-15T17:57:20.719Z,101098.44
2023-03-15T17:59:53.478Z,101100.88
2023-03-15T18:02:25.240Z,101088.28
2023-03-15T18:04:56.504Z,101133.16
2023-03-15T18:07:29.564Z,101114.41
2023-03-15T18:10:01.205Z,101131.91
2023-03-15T18:12:32.801Z,101130.00
2023-03-15T18:15:05.113Z,101135.06
2023-03-15T18:17:36.386Z,101118.09
2023-03-15T18:20:10.056Z,101135.59
2023-03-15T18:22:42.113Z,101122.13
2023-03-15T18:25:28.795Z,101133.44
2023-03-15T18:28:00.385Z,101130.53
2023-03-15T18:30:31.926Z,101138.38
2023-03-15T18:33:05.683Z,101144.38
2023-03-15T18:35:37.748Z,101151.19
2023-03-15T18:38:09.176Z,101138.59
2023-03-15T18:40:40.637Z,101151.63
2023-03-15T18:43:23.386Z,101153.28
2023-03-15T18:45:54.756Z,101159.22
2023-03-15T18:48:39.631Z,101135.09
2023-03-15T18:51:13.639Z,101146.44
2023-03-15T18:53:45.984Z,101163.91
2023-03-15T18:56:25.616Z,101172.47
2023-03-15T18:58:56.926Z,101143.13
2023-03-15T19:01:28.964Z,101146.69
2023-03-15T19:04:00.434Z,101151.56
2023-03-15T19:06:32.151Z,101137.44
2023-03-15T19:09:05.343Z,101156.66
2023-03-15T19:11:41.605Z,101154.72
2023-03-15T19:14:12.884Z,101162.47
2023-03-15T19:16:44.192Z,101166.63
2023-03-15T19:19:15.558Z,101179.78
2023-03-15T19:21:46.887Z,101160.13
2023-03-15T19:24:18.166Z,101161.81
2023-03-15T19:26:51.545Z,101164.22
2023-03-15T19:29:24.816Z,101179.06
2023-03-15T19:31:58.743Z,101172.78
2023-03-15T19:34:30.220Z,101189.31
2023-03-15T19:37:01.679Z,101169.78
2023-03-15T19:39:34.081Z,101192.78
2023-03-15T19:42:05.457Z,101150.06
2023-03-15T19:44:36.838Z,101198.66
2023-03-15T19:47:08.099Z,101185.22
2023-03-15T19:49:39.616Z,101174.47
2023-03-15T19:52:11.462Z,101205.31
2023-03-15T19:54:42.814Z,101200.81
2023-03-15T19:57:14.380Z,101213.00
2023-03-15T19:59:45.740Z,101171.16
2023-03-15T20:02:17.028Z,101215.31
2023-03-15T20:04:48.352Z,101222.22
2023-03-15T20:07:19.749Z,101203.34
2023-03-15T20:09:51.075Z,101227.13
2023-03-15T20:12:22.581Z,101220.09
2023-03-15T20:14:54.020Z,101212.00
2023-03-15T20:17:26.828Z,101208.19
2023-03-15T20:19:58.269Z,101223.13
2023-03-15T20:22:29.547Z,101231.91
2023-03-15T20:25:01.329Z,101243.97
2023-03-15T20:27:33.281Z,101239.44
2023-03-15T20:30:06.668Z,101220.63
2023-03-15T20:32:38.389Z,101228.44
2023-03-15T20:35:10.231Z,101232.66
2023-03-15T20:37:42.526Z,101200.75
2023-03-15T20:40:15.814Z,101204.84
2023-03-15T20:42:47.491Z,101222.38
2023-03-15T20:45:18.876Z,101246.94
2023-03-15T20:47:50.540Z,101251.38
2023-03-15T20:50:22.141Z,101253.88
2023-03-15T20:52:53.774Z,101252.00
2023-03-15T20:55:25.887Z,101257.09
2023-03-15T20:57:58.059Z,101245.47
2023-03-15T21:00:29.411Z,101253.44
2023-03-15T21:03:01.740Z,101253.34
2023-03-15T21:05:33.480Z,101249.56
2023-03-15T21:08:05.346Z,101248.69
2023-03-15T21:10:37.494Z,101244.13
2023-03-15T21:13:10.325Z,101230.59
2023-03-15T21:15:46.314Z,101264.97
2023-03-15T21:18:18.049Z,101257.88
2023-03-15T21:21:03.750Z,101258.66
2023-03-15T21:23:35.635Z,101234.69
2023-03-15T21:26:09.541Z,101226.53
2023-03-15T21:28:41.401Z,101257.47
2023-03-15T21:31:13.506Z,101253.00
2023-03-15T21:33:44.893Z,101251.88
2023-03-15T21:36:17.534Z,101246.44
2023-03-15T21:38:48.802Z,101254.34
2023-03-15T21:41:20.102Z,101256.97
2023-03-15T21:43:51.384Z,101240.06
2023-03-15T21:46:23.807Z,101248.22
2023-03-15T21:48:55.776Z,101230.38
2023-03-15T21:51:28.617Z,101252.53
2023-03-15T21:54:04.660Z,101242.50
2023-03-15T21:56:35.942Z,101237.13
2023-03-15T21:59:07.592Z,101255.53
2023-03-15T22:01:39.092Z,101264.41
2023-03-15T22:04:10.422Z,101246.47
2023-03-15T22:06:41.733Z,101265.06
2023-03-15T22:09:13.064Z,101264.88
2023-03-15T22:11:44.385Z,101251.16
2023-03-15T22:14:15.742Z,101239.84
2023-03-15T22:16:47.080Z,101273.09
2023-03-15T22:19:18.460Z,101251.03
2023-03-15T22:21:49.766Z,101271.97
2023-03-15T22:24:21.035Z,101267.53
2023-03-15T22:26:53.084Z,101269.06
2023-03-15T22:29:24.391Z,101247.75
2023-03-15T22:31:55.673Z,101266.41
2023-03-15T22:34:27.118Z,101251.31
2023-03-15T22:36:58.389Z,101261.84
2023-03-15T22:39:31.841Z,101258.34
2023-03-15T22:42:03.327Z,101265.22
2023-03-15T22:44:34.964Z,101265.09
2023-03-15T22:47:07.068Z,101248.16
2023-03-15T22:49:38.355Z,101248.16
2023-03-15T22:52:09.762Z,101263.00
2023-03-15T22:54:44.175Z,101264.66
2023-03-15T22:57:15.443Z,101241.50
2023-03-15T22:59:46.703Z,101261.69
2023-03-15T23:02:17.988Z,101271.13
2023-03-15T23:04:49.482Z,101271.00
2023-03-15T23:07:21.301Z,101272.53
2023-03-15T23:09:52.573Z,101248.50
2023-03-15T23:12:33.785Z,101252.09
2023-03-15T23:15:07.630Z,101275.84
2023-03-15T23:17:38.935Z,101288.00
2023-03-15T23:20:12.670Z,101264.09
2023-03-15T23:22:45.664Z,101226.97
2023-03-15T23:25:19.601Z,101282.75
2023-03-15T23:27:51.186Z,101256.88
2023-03-15T23:30:22.710Z,101292.31
2023-03-15T23:32:58.726Z,101291.44
2023-03-15T23:35:31.633Z,101291.75
2023-03-15T23:38:03.022Z,101299.44
2023-03-15T23:40:34.799Z,101268.34
2023-03-15T23:43:09.125Z,101302.59
2023-03-15T23:45:41.374Z,101302.41
2023-03-15T23:48:12.667Z,101286.47
2023-03-15T23:50:44.153Z,101315.53
2023-03-15T23:53:15.422Z,101297.75
2023-03-15T23:55:47.489Z,101316.28
2023-03-15T23:58:19.761Z,101282.44
